Time;durP1;ratioP1;P1;durP2;ratioP2;P2;SDS_P1;SDS_P2;PMS_P1;PMS_P2;Temp;Humidity;BMP_temperature;BMP_pressure;BME280_temperature;BME280_humidity;BME280_pressure;Samples;Min_cycle;Max_cycle;Signal;HPM_P1;HPM_P2
2023/03/24 00:00:47;;;;;;;0.10;0.10;;;;;;;;;;4997297;28;20069;-78
2023/03/24 00:03:33;;;;;;;0.10;0.10;;;;;;;;;;4988122;28;20432;-79
2023/03/24 00:06:21;;;;;;;0.10;0.10;;;;;;;;;;4981657;28;20553;-79
2023/03/24 00:09:07;;;;;;;0.10;0.10;;;;;;;;;;4986654;28;20374;-79
2023/03/24 00:11:52;;;;;;;0.10;0.10;;;;;;;;;;4985822;28;20080;-78
2023/03/24 00:14:38;;;;;;;0.10;0.10;;;;;;;;;;4985480;28;20038;-79
2023/03/24 00:17:28;;;;;;;0.10;0.10;;;;;;;;;;4986063;28;20042;-79
2023/03/24 00:20:14;;;;;;;0.20;0.20;;;;;;;;;;4985569;28;20690;-79
2023/03/24 00:23:00;;;;;;;0.10;0.10;;;;;;;;;;4985273;28;20535;-79
2023/03/24 00:25:48;;;;;;;0.10;0.10;;;;;;;;;;4986685;28;20030;-79
2023/03/24 00:28:35;;;;;;;0.10;0.10;;;;;;;;;;4984244;28;20319;-79
2023/03/24 00:31:23;;;;;;;0.10;0.10;;;;;;;;;;4983851;28;20089;-79
2023/03/24 00:34:09;;;;;;;0.10;0.10;;;;;;;;;;4990745;28;20062;-80
2023/03/24 00:36:57;;;;;;;0.10;0.10;;;;;;;;;;4985688;28;20044;-79
2023/03/24 00:39:43;;;;;;;0.20;0.20;;;;;;;;;;4986151;28;20042;-80
2023/03/24 00:42:31;;;;;;;0.10;0.10;;;;;;;;;;4984682;28;20730;-80
2023/03/24 00:45:19;;;;;;;0.10;0.10;;;;;;;;;;4988037;28;20042;-79
2023/03/24 00:48:05;;;;;;;0.10;0.10;;;;;;;;;;4986008;28;20423;-80
2023/03/24 00:50:51;;;;;;;0.10;0.10;;;;;;;;;;4984351;28;20412;-80
2023/03/24 00:53:42;;;;;;;0.10;0.10;;;;;;;;;;4984636;28;20033;-80
2023/03/24 00:56:30;;;;;;;0.10;0.10;;;;;;;;;;4989419;28;20398;-80
2023/03/24 00:59:15;;;;;;;0.20;0.20;;;;;;;;;;4981992;28;20041;-79
2023/03/24 01:02:01;;;;;;;0.10;0.10;;;;;;;;;;4986863;28;20046;-80
2023/03/24 01:04:52;;;;;;;0.10;0.10;;;;;;;;;;4984881;28;20767;-80
2023/03/24 01:07:41;;;;;;;0.10;0.10;;;;;;;;;;4984725;28;20350;-80
2023/03/24 01:10:26;;;;;;;0.15;0.15;;;;;;;;;;4982697;28;20077;-80
2023/03/24 01:13:12;;;;;;;0.10;0.10;;;;;;;;;;4986029;28;20041;-80
2023/03/24 01:15:58;;;;;;;0.10;0.10;;;;;;;;;;4989504;28;20330;-80
2023/03/24 01:18:44;;;;;;;0.10;0.10;;;;;;;;;;4988847;28;20181;-80
2023/03/24 01:21:31;;;;;;;0.10;0.10;;;;;;;;;;4987931;28;20042;-80
2023/03/24 01:24:17;;;;;;;0.10;0.10;;;;;;;;;;4987560;28;20044;-80
2023/03/24 01:27:03;;;;;;;0.10;0.10;;;;;;;;;;4986486;28;20054;-79
2023/03/24 01:29:48;;;;;;;0.10;0.10;;;;;;;;;;4985689;28;20379;-80
2023/03/24 01:32:34;;;;;;;0.10;0.10;;;;;;;;;;4985195;28;20551;-80
2023/03/24 01:35:20;;;;;;;0.10;0.10;;;;;;;;;;4981959;28;20073;-80
2023/03/24 01:38:07;;;;;;;0.10;0.10;;;;;;;;;;4987060;28;20523;-80
2023/03/24 01:40:54;;;;;;;0.10;0.10;;;;;;;;;;4989916;28;20038;-80
2023/03/24 01:43:40;;;;;;;0.10;0.10;;;;;;;;;;4985718;28;20389;-80
2023/03/24 01:46:28;;;;;;;0.10;0.10;;;;;;;;;;4983420;28;20034;-80
2023/03/24 01:49:14;;;;;;;0.10;0.10;;;;;;;;;;4986878;28;20058;-81
2023/03/24 01:52:01;;;;;;;0.10;0.10;;;;;;;;;;4986012;28;20597;-79
2023/03/24 01:54:51;;;;;;;0.10;0.10;;;;;;;;;;4978223;28;20034;-79
2023/03/24 01:57:39;;;;;;;0.20;0.20;;;;;;;;;;4983147;28;20048;-79
2023/03/24 02:00:26;;;;;;;0.10;0.10;;;;;;;;;;4976513;28;20486;-79
2023/03/24 02:03:44;;;;;;;0.10;0.10;;;;;;;;;;4984424;28;20041;-79
2023/03/24 02:06:33;;;;;;;0.17;0.17;;;;;;;;;;4984547;28;20553;-79
2023/03/24 02:09:19;;;;;;;0.10;0.10;;;;;;;;;;4975711;28;20099;-80
2023/03/24 02:12:05;;;;;;;0.20;0.20;;;;;;;;;;4985806;28;20034;-80
2023/03/24 02:14:53;;;;;;;0.10;0.10;;;;;;;;;;4970596;28;20050;-79
2023/03/24 02:18:02;;;;;;;0.10;0.10;;;;;;;;;;4981830;28;20487;-80
2023/03/24 02:21:08;;;;;;;0.20;0.20;;;;;;;;;;4983869;28;20038;-80
2023/03/24 02:24:16;;;;;;;0.10;0.10;;;;;;;;;;4970331;28;20448;-80
2023/03/24 02:27:12;;;;;;;0.10;0.10;;;;;;;;;;4955294;28;20161;-79
2023/03/24 02:30:01;;;;;;;0.10;0.10;;;;;;;;;;4983086;28;20625;-79
2023/03/24 02:33:06;;;;;;;0.20;0.20;;;;;;;;;;4972320;28;20104;-79
2023/03/24 02:35:58;;;;;;;0.10;0.10;;;;;;;;;;4969483;28;20681;-79
2023/03/24 02:38:53;;;;;;;0.10;0.10;;;;;;;;;;4970200;28;20038;-79
2023/03/24 02:41:45;;;;;;;0.10;0.10;;;;;;;;;;4969368;28;20039;-79
2023/03/24 02:44:30;;;;;;;;;;;;;;;;;;4983352;28;20096;-79
2023/03/24 02:47:34;;;;;;;0.10;0.10;;;;;;;;;;4984079;28;19925;-80
2023/03/24 02:50:25;;;;;;;0.10;0.10;;;;;;;;;;4983464;28;20122;-81
2023/03/24 02:53:16;;;;;;;0.10;0.10;;;;;;;;;;4988387;28;20038;-80
2023/03/24 02:56:37;;;;;;;0.10;0.10;;;;;;;;;;4983327;28;20032;-80
2023/03/24 02:59:36;;;;;;;0.10;0.10;;;;;;;;;;4983911;28;20092;-81
2023/03/24 03:02:33;;;;;;;0.20;0.20;;;;;;;;;;4984345;28;20038;-78
2023/03/24 03:05:26;;;;;;;0.10;0.10;;;;;;;;;;4984085;28;20125;-79
2023/03/24 03:08:16;;;;;;;0.10;0.10;;;;;;;;;;4987431;28;20294;-79
2023/03/24 03:11:04;;;;;;;0.13;0.13;;;;;;;;;;4990903;28;20593;-79
2023/03/24 03:14:07;;;;;;;0.10;0.10;;;;;;;;;;4988484;28;20270;-79
2023/03/24 03:16:58;;;;;;;0.10;0.10;;;;;;;;;;4996978;28;20038;-79
2023/03/24 03:19:49;;;;;;;0.10;0.10;;;;;;;;;;4983877;28;20037;-80
2023/03/24 03:22:44;;;;;;;0.10;0.10;;;;;;;;;;4984901;28;20033;-80
2023/03/24 03:25:34;;;;;;;0.10;0.10;;;;;;;;;;4984300;28;20484;-79
2023/03/24 03:28:22;;;;;;;0.10;0.10;;;;;;;;;;4988334;28;20038;-79
2023/03/24 03:31:13;;;;;;;0.10;0.10;;;;;;;;;;4986298;28;20158;-79
2023/03/24 03:34:05;;;;;;;0.10;0.10;;;;;;;;;;4998662;28;20469;-79
2023/03/24 03:37:02;;;;;;;0.10;0.10;;;;;;;;;;4985627;28;20041;-79
2023/03/24 03:39:51;;;;;;;0.10;0.10;;;;;;;;;;4988388;28;20026;-80
2023/03/24 03:42:38;;;;;;;0.10;0.10;;;;;;;;;;4987510;28;20031;-80
2023/03/24 03:45:23;;;;;;;0.10;0.10;;;;;;;;;;4986049;28;20034;-80
2023/03/24 03:48:09;;;;;;;0.15;0.15;;;;;;;;;;4989456;28;20101;-80
2023/03/24 03:50:55;;;;;;;0.10;0.10;;;;;;;;;;4989232;28;20085;-80
2023/03/24 03:53:50;;;;;;;0.10;0.10;;;;;;;;;;4988746;28;20044;-80
2023/03/24 03:56:36;;;;;;;0.10;0.10;;;;;;;;;;4984009;28;20308;-78
2023/03/24 03:59:39;;;;;;;0.10;0.10;;;;;;;;;;4986206;28;20026;-78
2023/03/24 04:02:42;;;;;;;0.10;0.10;;;;;;;;;;4986420;28;20322;-79
2023/03/24 04:05:35;;;;;;;0.10;0.10;;;;;;;;;;4973172;28;20386;-78
2023/03/24 04:08:40;;;;;;;0.10;0.10;;;;;;;;;;4985368;28;20043;-79
2023/03/24 04:11:49;;;;;;;0.10;0.10;;;;;;;;;;4986217;28;20034;-79
2023/03/24 04:15:02;;;;;;;0.17;0.17;;;;;;;;;;4985719;28;20189;-79
2023/03/24 04:17:57;;;;;;;0.10;0.10;;;;;;;;;;4984983;28;20434;-79
2023/03/24 04:21:32;;;;;;;0.10;0.10;;;;;;;;;;4988190;28;20038;-79
2023/03/24 04:24:39;;;;;;;0.10;0.10;;;;;;;;;;4987123;28;20291;-79
2023/03/24 04:27:46;;;;;;;0.10;0.10;;;;;;;;;;4990372;28;21018;-79
2023/03/24 04:30:42;;;;;;;0.10;0.10;;;;;;;;;;4988941;28;20108;-80
2023/03/24 04:33:44;;;;;;;0.15;0.15;;;;;;;;;;4985586;28;20243;-80
2023/03/24 04:36:53;;;;;;;0.10;0.10;;;;;;;;;;4982497;28;20426;-79
2023/03/24 04:39:57;;;;;;;0.10;0.10;;;;;;;;;;4985289;28;20030;-79
2023/03/24 04:42:46;;;;;;;0.20;0.20;;;;;;;;;;4984856;28;20036;-79
2023/03/24 04:45:34;;;;;;;0.10;0.10;;;;;;;;;;4986164;28;20441;-79
2023/03/24 04:48:40;;;;;;;0.10;0.10;;;;;;;;;;4985825;28;20395;-78
2023/03/24 04:51:30;;;;;;;0.10;0.10;;;;;;;;;;4986285;28;20030;-80
2023/03/24 04:54:25;;;;;;;0.10;0.10;;;;;;;;;;4988790;28;20026;-80
2023/03/24 04:57:17;;;;;;;0.10;0.10;;;;;;;;;;4989151;28;20031;-78
2023/03/24 05:00:08;;;;;;;0.20;0.20;;;;;;;;;;4984661;28;20034;-80
2023/03/24 05:02:54;;;;;;;0.10;0.10;;;;;;;;;;4992332;28;20123;-79
2023/03/24 05:05:47;;;;;;;0.20;0.20;;;;;;;;;;4987051;28;20030;-79
2023/03/24 05:08:33;;;;;;;0.10;0.10;;;;;;;;;;4993088;28;20060;-79
2023/03/24 05:11:19;;;;;;;0.20;0.20;;;;;;;;;;4990415;28;20038;-78
2023/03/24 05:14:15;;;;;;;0.10;0.10;;;;;;;;;;4987823;28;20042;-79
2023/03/24 05:17:01;;;;;;;0.10;0.10;;;;;;;;;;4989840;28;20393;-79
2023/03/24 05:19:48;;;;;;;0.10;0.10;;;;;;;;;;4995972;28;20041;-78
2023/03/24 05:22:34;;;;;;;0.13;0.13;;;;;;;;;;4986794;28;20030;-79
2023/03/24 05:25:22;;;;;;;0.10;0.10;;;;;;;;;;4992695;28;20033;-79
2023/03/24 05:28:08;;;;;;;0.10;0.10;;;;;;;;;;4985614;28;20380;-79
2023/03/24 05:30:54;;;;;;;0.15;0.15;;;;;;;;;;4985359;28;20565;-79
2023/03/24 05:34:03;;;;;;;0.10;0.10;;;;;;;;;;4986149;28;20273;-78
2023/03/24 05:36:53;;;;;;;0.10;0.10;;;;;;;;;;4982893;28;20374;-79
2023/03/24 05:39:40;;;;;;;0.10;0.10;;;;;;;;;;4992787;28;20381;-79
2023/03/24 05:42:43;;;;;;;0.10;0.10;;;;;;;;;;4972287;28;20113;-79
2023/03/24 05:45:32;;;;;;;0.20;0.20;;;;;;;;;;4984771;28;20041;-78
2023/03/24 05:48:19;;;;;;;0.10;0.10;;;;;;;;;;4986718;28;20034;-79
2023/03/24 05:51:44;;;;;;;0.10;0.10;;;;;;;;;;4983773;28;20038;-79
2023/03/24 05:54:32;;;;;;;0.20;0.20;;;;;;;;;;4990126;28;20042;-79
2023/03/24 05:57:29;;;;;;;0.10;0.10;;;;;;;;;;4972137;28;20049;-79
2023/03/24 06:00:33;;;;;;;0.10;0.10;;;;;;;;;;4985065;28;21579;-79
2023/03/24 06:03:33;;;;;;;0.10;0.10;;;;;;;;;;4997658;28;20085;-79
2023/03/24 06:06:25;;;;;;;0.10;0.10;;;;;;;;;;4983098;28;20062;-79
2023/03/24 06:09:13;;;;;;;0.10;0.10;;;;;;;;;;4997780;28;20042;-79
2023/03/24 06:11:59;;;;;;;0.10;0.10;;;;;;;;;;4991616;28;20061;-78
2023/03/24 06:14:46;;;;;;;0.10;0.10;;;;;;;;;;4984380;28;20023;-79
2023/03/24 06:17:33;;;;;;;0.15;0.15;;;;;;;;;;4983701;28;20627;-79
2023/03/24 06:20:26;;;;;;;0.10;0.10;;;;;;;;;;4982476;28;20725;-79
2023/03/24 06:23:24;;;;;;;0.10;0.10;;;;;;;;;;4987974;28;20030;-79
2023/03/24 06:26:29;;;;;;;0.10;0.10;;;;;;;;;;4974952;28;20038;-79
2023/03/24 06:29:18;;;;;;;0.20;0.20;;;;;;;;;;4984688;28;20439;-79
2023/03/24 06:32:04;;;;;;;0.10;0.10;;;;;;;;;;4988790;28;20034;-79
2023/03/24 06:34:55;;;;;;;0.10;0.10;;;;;;;;;;4990090;28;20041;-80
2023/03/24 06:38:02;;;;;;;0.20;0.20;;;;;;;;;;5002061;28;20045;-79
2023/03/24 06:40:48;;;;;;;0.10;0.10;;;;;;;;;;4983938;28;20034;-80
2023/03/24 06:43:34;;;;;;;0.10;0.10;;;;;;;;;;4990359;28;20030;-80
2023/03/24 06:46:20;;;;;;;0.10;0.10;;;;;;;;;;4985504;28;20462;-80
2023/03/24 06:49:06;;;;;;;0.20;0.20;;;;;;;;;;4993573;28;20492;-79
2023/03/24 06:51:53;;;;;;;0.10;0.10;;;;;;;;;;4993072;28;20034;-80
2023/03/24 06:54:39;;;;;;;0.20;0.20;;;;;;;;;;4987500;28;20034;-79
2023/03/24 06:57:26;;;;;;;0.10;0.10;;;;;;;;;;4994645;28;20053;-80
2023/03/24 07:00:30;;;;;;;0.10;0.10;;;;;;;;;;4989565;28;20034;-78
2023/03/24 07:03:45;;;;;;;0.10;0.10;;;;;;;;;;4992547;28;20458;-78
2023/03/24 07:06:44;;;;;;;0.10;0.10;;;;;;;;;;4989517;28;20053;-80
2023/03/24 07:09:34;;;;;;;0.20;0.20;;;;;;;;;;4999487;28;20050;-79
2023/03/24 07:12:21;;;;;;;0.10;0.10;;;;;;;;;;4988295;28;20183;-79
2023/03/24 07:15:08;;;;;;;0.10;0.10;;;;;;;;;;4999224;28;20126;-80
2023/03/24 07:17:54;;;;;;;0.10;0.10;;;;;;;;;;4990686;28;20034;-79
2023/03/24 07:21:12;;;;;;;0.10;0.10;;;;;;;;;;4988258;28;20027;-79
2023/03/24 07:23:58;;;;;;;0.10;0.10;;;;;;;;;;4986430;28;20057;-79
2023/03/24 07:26:50;;;;;;;0.20;0.20;;;;;;;;;;4989645;28;20049;-79
2023/03/24 07:29:39;;;;;;;0.10;0.10;;;;;;;;;;4993866;28;20129;-79
2023/03/24 07:32:38;;;;;;;0.10;0.10;;;;;;;;;;4990479;28;20042;-79
2023/03/24 07:35:24;;;;;;;0.10;0.10;;;;;;;;;;4989157;28;20089;-79
2023/03/24 07:38:10;;;;;;;0.10;0.10;;;;;;;;;;4991824;28;20037;-79
2023/03/24 07:40:59;;;;;;;0.20;0.20;;;;;;;;;;4984135;28;20088;-79
2023/03/24 07:43:45;;;;;;;0.10;0.10;;;;;;;;;;4984019;28;20050;-79
2023/03/24 07:46:44;;;;;;;0.10;0.10;;;;;;;;;;4987807;28;20034;-79
2023/03/24 07:49:30;;;;;;;0.10;0.10;;;;;;;;;;4987161;28;20491;-81
2023/03/24 07:52:25;;;;;;;0.10;0.10;;;;;;;;;;4989088;28;20037;-78
2023/03/24 07:55:14;;;;;;;0.10;0.10;;;;;;;;;;4991281;28;20388;-78
2023/03/24 07:58:22;;;;;;;0.10;0.10;;;;;;;;;;4990316;28;20446;-78
2023/03/24 08:01:31;;;;;;;0.10;0.10;;;;;;;;;;4996546;28;20108;-78
2023/03/24 08:04:20;;;;;;;0.10;0.10;;;;;;;;;;4993873;28;20076;-78
2023/03/24 08:07:07;;;;;;;0.17;0.17;;;;;;;;;;4985849;28;20050;-80
2023/03/24 08:09:53;;;;;;;0.10;0.10;;;;;;;;;;4985591;28;20039;-79
2023/03/24 08:12:39;;;;;;;0.20;0.20;;;;;;;;;;4988991;28;20422;-79
2023/03/24 08:15:26;;;;;;;0.10;0.10;;;;;;;;;;4987959;28;20531;-79
2023/03/24 08:18:11;;;;;;;0.10;0.10;;;;;;;;;;4989066;28;20064;-79
2023/03/24 08:20:57;;;;;;;0.10;0.10;;;;;;;;;;4987253;28;20107;-79
2023/03/24 08:23:43;;;;;;;0.10;0.10;;;;;;;;;;4986258;28;20044;-80
2023/03/24 08:26:33;;;;;;;0.10;0.10;;;;;;;;;;4987764;28;20034;-79
2023/03/24 08:29:19;;;;;;;0.10;0.10;;;;;;;;;;4988043;28;20037;-79
2023/03/24 08:32:05;;;;;;;0.13;0.13;;;;;;;;;;4984960;28;20493;-80
2023/03/24 08:34:51;;;;;;;0.15;0.15;;;;;;;;;;4987509;28;20070;-79
2023/03/24 08:37:36;;;;;;;0.10;0.10;;;;;;;;;;4991398;28;20068;-80
2023/03/24 08:40:23;;;;;;;0.10;0.10;;;;;;;;;;4981510;28;20065;-79
2023/03/24 08:43:12;;;;;;;0.10;0.10;;;;;;;;;;4987356;28;20033;-79
2023/03/24 08:45:59;;;;;;;0.20;0.20;;;;;;;;;;4985495;28;20102;-79
2023/03/24 08:48:45;;;;;;;0.10;0.10;;;;;;;;;;4986852;28;20346;-79
2023/03/24 08:51:31;;;;;;;0.10;0.10;;;;;;;;;;4986114;28;20038;-80
2023/03/24 08:54:17;;;;;;;0.10;0.10;;;;;;;;;;4987151;28;20095;-79
2023/03/24 08:57:02;;;;;;;0.10;0.10;;;;;;;;;;4984524;28;20291;-79
2023/03/24 08:59:48;;;;;;;0.10;0.10;;;;;;;;;;4987215;28;20474;-79
2023/03/24 09:02:34;;;;;;;0.10;0.10;;;;;;;;;;4983983;28;20137;-79
2023/03/24 09:05:21;;;;;;;0.10;0.10;;;;;;;;;;4983499;28;20037;-79
2023/03/24 09:08:07;;;;;;;0.10;0.10;;;;;;;;;;4985429;28;20404;-80
2023/03/24 09:10:53;;;;;;;0.20;0.20;;;;;;;;;;4984379;28;20050;-79
2023/03/24 09:13:38;;;;;;;0.20;0.20;;;;;;;;;;4983167;28;20077;-80
2023/03/24 09:16:25;;;;;;;0.10;0.10;;;;;;;;;;4982434;28;20131;-79
2023/03/24 09:19:11;;;;;;;0.20;0.20;;;;;;;;;;4985770;28;20604;-79
2023/03/24 09:21:56;;;;;;;0.13;0.13;;;;;;;;;;4987849;28;20552;-79
2023/03/24 09:24:43;;;;;;;0.20;0.20;;;;;;;;;;4987527;28;20030;-79
2023/03/24 09:27:29;;;;;;;0.20;0.20;;;;;;;;;;4986304;28;20096;-78
2023/03/24 09:30:16;;;;;;;0.20;0.20;;;;;;;;;;4971092;28;20370;-80
2023/03/24 09:33:02;;;;;;;0.20;0.20;;;;;;;;;;4982320;28;20033;-80
2023/03/24 09:35:52;;;;;;;0.10;0.10;;;;;;;;;;4980965;28;20030;-79
2023/03/24 09:38:38;;;;;;;0.13;0.13;;;;;;;;;;4973351;28;20070;-80
2023/03/24 09:41:28;;;;;;;0.20;0.20;;;;;;;;;;4984020;28;20499;-78
2023/03/24 09:44:22;;;;;;;0.20;0.20;;;;;;;;;;4984141;28;20340;-78
2023/03/24 09:47:22;;;;;;;0.10;0.10;;;;;;;;;;4980672;28;20031;-80
2023/03/24 09:50:19;;;;;;;0.20;0.20;;;;;;;;;;4984297;28;20053;-79
2023/03/24 09:53:26;;;;;;;0.10;0.10;;;;;;;;;;4984470;28;20048;-79
2023/03/24 09:56:16;;;;;;;0.20;0.20;;;;;;;;;;4982153;28;20034;-78
2023/03/24 09:59:04;;;;;;;0.10;0.10;;;;;;;;;;4983428;28;20411;-79
2023/03/24 10:01:51;;;;;;;0.17;0.17;;;;;;;;;;4983178;28;20616;-79
2023/03/24 10:04:36;;;;;;;0.13;0.13;;;;;;;;;;4981492;28;20030;-79
2023/03/24 10:07:26;;;;;;;0.20;0.20;;;;;;;;;;4921261;28;20552;-79
2023/03/24 10:11:01;;;;;;;0.20;0.20;;;;;;;;;;4968157;28;20380;-79
2023/03/24 10:14:30;;;;;;;;;;;;;;;;;;;;;
2023/03/24 10:17:19;;;;;;;0.20;0.20;;;;;;;;;;4815765;28;20559;-79
2023/03/24 10:20:23;;;;;;;0.20;0.20;;;;;;;;;;4821364;28;20301;-78
2023/03/24 10:23:45;;;;;;;0.20;0.20;;;;;;;;;;4849967;28;20052;-78
2023/03/24 10:26:34;;;;;;;0.15;0.15;;;;;;;;;;4927973;28;20402;-79
2023/03/24 10:29:22;;;;;;;0.20;0.20;;;;;;;;;;4981994;28;20099;-78
2023/03/24 10:32:44;;;;;;;0.20;0.20;;;;;;;;;;4914375;28;20171;-79
2023/03/24 10:35:36;;;;;;;0.10;0.10;;;;;;;;;;4886418;28;20512;-78
2023/03/24 10:38:22;;;;;;;0.20;0.20;;;;;;;;;;4955063;28;20402;-78
2023/03/24 10:41:14;;;;;;;0.20;0.20;;;;;;;;;;4981502;28;20038;-78
2023/03/24 10:44:00;;;;;;;0.20;0.20;;;;;;;;;;4982004;28;20117;-78
2023/03/24 10:46:48;;;;;;;0.17;0.17;;;;;;;;;;4981769;28;20486;-78
2023/03/24 10:49:33;;;;;;;0.20;0.20;;;;;;;;;;4983976;28;20585;-79
2023/03/24 10:52:19;;;;;;;0.10;0.10;;;;;;;;;;4979679;28;20460;-79
2023/03/24 10:55:06;;;;;;;0.30;0.30;;;;;;;;;;4982807;28;20360;-79
2023/03/24 10:57:56;;;;;;;0.20;0.20;;;;;;;;;;4983926;28;20479;-80
2023/03/24 11:00:42;;;;;;;0.20;0.20;;;;;;;;;;4980237;28;20316;-79
2023/03/24 11:03:30;;;;;;;0.10;0.10;;;;;;;;;;4984533;28;20088;-79
2023/03/24 11:06:17;;;;;;;0.28;0.28;;;;;;;;;;4985052;28;20660;-80
2023/03/24 11:09:16;;;;;;;0.30;0.30;;;;;;;;;;4982897;28;20050;-80
2023/03/24 11:12:02;;;;;;;0.25;0.25;;;;;;;;;;4981547;28;20046;-80
2023/03/24 11:14:48;;;;;;;0.10;0.10;;;;;;;;;;4986192;28;20030;-80
2023/03/24 11:17:34;;;;;;;0.20;0.20;;;;;;;;;;4986980;28;20436;-79
2023/03/24 11:20:24;;;;;;;0.20;0.20;;;;;;;;;;4984809;28;20073;-80
2023/03/24 11:23:13;;;;;;;0.20;0.20;;;;;;;;;;4984424;28;20753;-80
2023/03/24 11:26:12;;;;;;;0.20;0.20;;;;;;;;;;4990284;28;20387;-80
2023/03/24 11:29:00;;;;;;;0.30;0.30;;;;;;;;;;4986075;28;20743;-80
2023/03/24 11:31:57;;;;;;;0.10;0.10;;;;;;;;;;4985022;28;20046;-80
2023/03/24 11:34:47;;;;;;;0.20;0.20;;;;;;;;;;4986256;28;20574;-79
2023/03/24 11:37:34;;;;;;;0.10;0.10;;;;;;;;;;4987310;28;20046;-79
2023/03/24 11:40:24;;;;;;;0.10;0.10;;;;;;;;;;4980713;28;20124;-79
2023/03/24 11:43:19;;;;;;;0.10;0.10;;;;;;;;;;4985399;28;20053;-79
2023/03/24 11:46:12;;;;;;;0.20;0.20;;;;;;;;;;4965483;28;20453;-79
2023/03/24 11:48:58;;;;;;;0.20;0.20;;;;;;;;;;4985316;28;20050;-77
2023/03/24 11:51:46;;;;;;;0.20;0.20;;;;;;;;;;4987322;28;20029;-77
2023/03/24 11:54:36;;;;;;;0.20;0.20;;;;;;;;;;4997036;28;20601;-77
2023/03/24 11:57:28;;;;;;;0.10;0.10;;;;;;;;;;4984238;28;20038;-77
2023/03/24 12:00:14;;;;;;;0.10;0.10;;;;;;;;;;4984324;28;20046;-78
2023/03/24 12:03:08;;;;;;;0.30;0.30;;;;;;;;;;4984532;28;20034;-77
2023/03/24 12:06:00;;;;;;;0.10;0.10;;;;;;;;;;4984722;28;20035;-77
2023/03/24 12:08:46;;;;;;;0.17;0.17;;;;;;;;;;4984315;28;20040;-77
2023/03/24 12:11:52;;;;;;;0.22;0.22;;;;;;;;;;4985673;28;20033;-77
2023/03/24 12:14:45;;;;;;;0.10;0.10;;;;;;;;;;4986416;28;20669;-78
2023/03/24 12:17:37;;;;;;;0.10;0.10;;;;;;;;;;4986381;28;20424;-77
2023/03/24 12:20:32;;;;;;;0.10;0.10;;;;;;;;;;4987931;28;20602;-77
2023/03/24 12:23:27;;;;;;;0.10;0.10;;;;;;;;;;4982829;28;20033;-77
2023/03/24 12:26:16;;;;;;;0.10;0.10;;;;;;;;;;4979310;28;20424;-78
2023/03/24 12:29:02;;;;;;;0.15;0.15;;;;;;;;;;4987434;28;20033;-77
2023/03/24 12:31:53;;;;;;;0.10;0.10;;;;;;;;;;4979481;28;20045;-78
2023/03/24 12:34:41;;;;;;;0.30;0.30;;;;;;;;;;4980387;28;20675;-78
2023/03/24 12:37:45;;;;;;;0.30;0.30;;;;;;;;;;4982643;28;20421;-79
2023/03/24 12:40:41;;;;;;;0.20;0.20;;;;;;;;;;4983935;28;20079;-79
2023/03/24 12:43:32;;;;;;;0.30;0.30;;;;;;;;;;4977878;28;20574;-79
2023/03/24 12:46:41;;;;;;;0.20;0.20;;;;;;;;;;4983880;28;20070;-78
2023/03/24 12:49:38;;;;;;;0.30;0.30;;;;;;;;;;4981695;28;20095;-79
2023/03/24 12:52:42;;;;;;;0.20;0.20;;;;;;;;;;4982264;28;20509;-79
2023/03/24 12:55:47;;;;;;;0.13;0.13;;;;;;;;;;4980649;28;20044;-79
2023/03/24 12:58:40;;;;;;;0.00;0.00;;;;;;;;;;4981135;28;20038;-79
2023/03/24 13:01:36;;;;;;;0.20;0.20;;;;;;;;;;4980181;28;20086;-80
2023/03/24 13:04:41;;;;;;;0.10;0.10;;;;;;;;;;4988530;28;20033;-81
2023/03/24 13:07:28;;;;;;;0.00;0.00;;;;;;;;;;4987109;28;20387;-80
2023/03/24 13:10:14;;;;;;;0.10;0.10;;;;;;;;;;4986727;28;20038;-81
2023/03/24 13:13:11;;;;;;;0.05;0.05;;;;;;;;;;4989324;28;20034;-80
2023/03/24 13:15:59;;;;;;;0.20;0.20;;;;;;;;;;4985221;28;20387;-80
2023/03/24 13:18:47;;;;;;;0.20;0.20;;;;;;;;;;4987150;28;20064;-80
2023/03/24 13:21:34;;;;;;;0.28;0.22;;;;;;;;;;4985390;28;20044;-79
2023/03/24 13:24:20;;;;;;;0.10;0.10;;;;;;;;;;4985476;28;20034;-78
2023/03/24 13:27:22;;;;;;;0.00;0.00;;;;;;;;;;4983558;28;20120;-78
2023/03/24 13:30:19;;;;;;;0.10;0.10;;;;;;;;;;4985350;28;20043;-79
2023/03/24 13:33:10;;;;;;;0.20;0.20;;;;;;;;;;4986645;28;20030;-79
2023/03/24 13:36:04;;;;;;;0.10;0.10;;;;;;;;;;4982900;28;20034;-76
2023/03/24 13:38:51;;;;;;;0.20;0.20;;;;;;;;;;4985935;28;20034;-79
2023/03/24 13:41:38;;;;;;;0.30;0.30;;;;;;;;;;4982890;28;20062;-79
2023/03/24 13:44:26;;;;;;;0.20;0.20;;;;;;;;;;4958162;28;20082;-79
2023/03/24 13:47:16;;;;;;;0.10;0.10;;;;;;;;;;4981154;28;20092;-79
2023/03/24 13:50:04;;;;;;;0.20;0.20;;;;;;;;;;4984876;28;20586;-80
2023/03/24 13:52:50;;;;;;;0.00;0.00;;;;;;;;;;4983805;28;20495;-79
2023/03/24 13:55:37;;;;;;;0.03;0.03;;;;;;;;;;4981174;28;20083;-78
2023/03/24 13:58:27;;;;;;;0.30;0.30;;;;;;;;;;4982609;28;20038;-79
2023/03/24 14:01:18;;;;;;;0.20;0.20;;;;;;;;;;4984651;28;20137;-79
2023/03/24 14:04:19;;;;;;;0.10;0.10;;;;;;;;;;4982142;28;20041;-79
2023/03/24 14:07:28;;;;;;;0.35;0.35;;;;;;;;;;4981846;28;20057;-79
2023/03/24 14:10:19;;;;;;;0.20;0.20;;;;;;;;;;4964703;28;20093;-79
2023/03/24 14:13:05;;;;;;;;;;;;;;;;;;4986583;28;20385;-78
2023/03/24 14:15:57;;;;;;;0.10;0.10;;;;;;;;;;4983722;28;20416;-79
2023/03/24 14:18:43;;;;;;;0.10;0.10;;;;;;;;;;4987273;28;20069;-78
2023/03/24 14:21:33;;;;;;;0.10;0.10;;;;;;;;;;4982164;28;20038;-78
2023/03/24 14:24:26;;;;;;;0.30;0.30;;;;;;;;;;4984852;28;20030;-79
2023/03/24 14:27:26;;;;;;;0.20;0.20;;;;;;;;;;4985026;28;20339;-79
2023/03/24 14:30:15;;;;;;;0.20;0.20;;;;;;;;;;4985123;28;20045;-79
2023/03/24 14:33:01;;;;;;;0.22;0.20;;;;;;;;;;4985466;28;20374;-78
2023/03/24 14:35:47;;;;;;;0.30;0.30;;;;;;;;;;4983949;28;20099;-78
2023/03/24 14:38:35;;;;;;;0.20;0.20;;;;;;;;;;4984898;28;20356;-78
2023/03/24 14:41:28;;;;;;;0.20;0.20;;;;;;;;;;4984840;28;20030;-79
2023/03/24 14:44:13;;;;;;;0.20;0.20;;;;;;;;;;4987126;28;20037;-80
2023/03/24 14:46:59;;;;;;;0.10;0.10;;;;;;;;;;4979175;28;20120;-79
2023/03/24 14:49:46;;;;;;;0.10;0.10;;;;;;;;;;4995491;28;20643;-79
2023/03/24 14:52:40;;;;;;;0.10;0.10;;;;;;;;;;4985001;28;20035;-79
2023/03/24 14:55:26;;;;;;;0.10;0.10;;;;;;;;;;4989159;28;20034;-79
2023/03/24 14:58:18;;;;;;;0.10;0.10;;;;;;;;;;4985979;28;20561;-79
2023/03/24 15:01:04;;;;;;;0.20;0.20;;;;;;;;;;4986018;28;20046;-79
2023/03/24 15:04:00;;;;;;;0.20;0.20;;;;;;;;;;4986715;28;20041;-79
2023/03/24 15:06:46;;;;;;;0.17;0.17;;;;;;;;;;4985957;28;20037;-80
2023/03/24 15:09:34;;;;;;;0.10;0.10;;;;;;;;;;4986260;28;20045;-79
2023/03/24 15:12:20;;;;;;;0.10;0.10;;;;;;;;;;4986641;28;20128;-79
2023/03/24 15:15:12;;;;;;;0.10;0.10;;;;;;;;;;4985971;28;20072;-80
2023/03/24 15:17:58;;;;;;;0.10;0.10;;;;;;;;;;4988702;28;20113;-79
2023/03/24 15:20:44;;;;;;;0.10;0.10;;;;;;;;;;4986170;28;20040;-80
2023/03/24 15:23:30;;;;;;;0.15;0.15;;;;;;;;;;4985446;28;20519;-79
2023/03/24 15:26:17;;;;;;;0.10;0.10;;;;;;;;;;4987801;28;20377;-78
2023/03/24 15:29:05;;;;;;;0.10;0.10;;;;;;;;;;4987756;28;20161;-79
2023/03/24 15:31:50;;;;;;;0.20;0.20;;;;;;;;;;4986199;28;20046;-79
2023/03/24 15:34:38;;;;;;;0.10;0.10;;;;;;;;;;4988839;28;20049;-80
2023/03/24 15:37:30;;;;;;;0.10;0.10;;;;;;;;;;4986471;28;20117;-79
2023/03/24 15:40:25;;;;;;;0.20;0.20;;;;;;;;;;4986492;28;20070;-79
2023/03/24 15:43:18;;;;;;;0.10;0.10;;;;;;;;;;4988526;28;20042;-80
2023/03/24 15:46:06;;;;;;;0.10;0.10;;;;;;;;;;4984115;28;20506;-80
2023/03/24 15:48:52;;;;;;;0.10;0.10;;;;;;;;;;4987882;28;20441;-79
2023/03/24 15:51:47;;;;;;;0.10;0.10;;;;;;;;;;4983015;28;20037;-79
2023/03/24 15:54:38;;;;;;;0.10;0.10;;;;;;;;;;4988044;28;20038;-79
2023/03/24 15:57:24;;;;;;;0.10;0.10;;;;;;;;;;4986243;28;20141;-79
2023/03/24 16:00:13;;;;;;;0.10;0.10;;;;;;;;;;4984092;28;20045;-79
2023/03/24 16:03:00;;;;;;;0.10;0.10;;;;;;;;;;4987061;28;20508;-79
2023/03/24 16:05:47;;;;;;;0.20;0.20;;;;;;;;;;4982382;28;20057;-79
2023/03/24 16:08:34;;;;;;;0.10;0.10;;;;;;;;;;4986747;28;20118;-78
2023/03/24 16:11:20;;;;;;;0.13;0.13;;;;;;;;;;4985536;28;20124;-79
2023/03/24 16:14:25;;;;;;;0.20;0.15;;;;;;;;;;4987583;28;20233;-78
2023/03/24 16:17:11;;;;;;;0.15;0.15;;;;;;;;;;4988811;28;20042;-79
2023/03/24 16:19:56;;;;;;;0.10;0.10;;;;;;;;;;4982070;28;20075;-79
2023/03/24 16:22:42;;;;;;;0.20;0.20;;;;;;;;;;4987729;28;20562;-79
2023/03/24 16:25:28;;;;;;;0.10;0.10;;;;;;;;;;4981814;28;20117;-79
2023/03/24 16:28:16;;;;;;;0.15;0.15;;;;;;;;;;4986120;28;20131;-79
2023/03/24 16:31:03;;;;;;;0.10;0.10;;;;;;;;;;4990301;28;20089;-79
2023/03/24 16:33:53;;;;;;;0.10;0.10;;;;;;;;;;4991145;28;20144;-79
2023/03/24 16:36:38;;;;;;;0.10;0.10;;;;;;;;;;4987782;28;20030;-79
2023/03/24 16:39:25;;;;;;;0.15;0.15;;;;;;;;;;4986686;28;20450;-79
2023/03/24 16:42:11;;;;;;;0.10;0.10;;;;;;;;;;4985284;28;20033;-79
2023/03/24 16:44:57;;;;;;;0.20;0.20;;;;;;;;;;4984841;28;20030;-79
2023/03/24 16:47:42;;;;;;;0.10;0.10;;;;;;;;;;4982864;28;20545;-79
2023/03/24 16:50:34;;;;;;;0.10;0.10;;;;;;;;;;4983457;28;20045;-78
2023/03/24 16:53:20;;;;;;;0.10;0.10;;;;;;;;;;4985534;28;20042;-79
2023/03/24 16:56:06;;;;;;;0.10;0.10;;;;;;;;;;4985051;28;20553;-79
2023/03/24 16:58:55;;;;;;;0.20;0.20;;;;;;;;;;4987849;28;20475;-79
2023/03/24 17:01:43;;;;;;;0.10;0.10;;;;;;;;;;4980248;28;20136;-79
2023/03/24 17:04:32;;;;;;;0.20;0.20;;;;;;;;;;4984850;28;20389;-79
2023/03/24 17:07:18;;;;;;;0.00;0.00;;;;;;;;;;4955737;28;20490;-79
2023/03/24 17:10:04;;;;;;;0.20;0.20;;;;;;;;;;4985425;28;20042;-79